sensor_id;sensor_type;location;lat;lon;timestamp;P1;durP1;ratioP1;P2;durP2;ratioP2
7833;SDS011;3962;42.696;23.354;2023-07-24T00:00:51;7.57;;;7.27;;
7833;SDS011;3962;42.696;23.354;2023-07-24T00:03:19;7.17;;;6.87;;
7833;SDS011;3962;42.696;23.354;2023-07-24T00:05:46;7.70;;;7.40;;
7833;SDS011;3962;42.696;23.354;2023-07-24T00:08:12;8.30;;;7.90;;
7833;SDS011;3962;42.696;23.354;2023-07-24T00:10:39;7.73;;;7.43;;
7833;SDS011;3962;42.696;23.354;2023-07-24T00:13:06;7.20;;;6.90;;
7833;SDS011;3962;42.696;23.354;2023-07-24T00:15:33;8.00;;;7.60;;
7833;SDS011;3962;42.696;23.354;2023-07-24T00:18:00;8.73;;;8.33;;
7833;SDS011;3962;42.696;23.354;2023-07-24T00:20:28;7.07;;;6.77;;
7833;SDS011;3962;42.696;23.354;2023-07-24T00:22:55;6.67;;;6.37;;
7833;SDS011;3962;42.696;23.354;2023-07-24T00:25:21;7.30;;;7.00;;
7833;SDS011;3962;42.696;23.354;2023-07-24T00:27:48;8.40;;;8.10;;
7833;SDS011;3962;42.696;23.354;2023-07-24T00:30:15;7.40;;;7.10;;
7833;SDS011;3962;42.696;23.354;2023-07-24T00:32:42;7.07;;;6.77;;
7833;SDS011;3962;42.696;23.354;2023-07-24T00:35:09;7.50;;;7.20;;
7833;SDS011;3962;42.696;23.354;2023-07-24T00:37:37;7.10;;;6.80;;
7833;SDS011;3962;42.696;23.354;2023-07-24T00:40:04;7.37;;;7.07;;
7833;SDS011;3962;42.696;23.354;2023-07-24T00:42:32;7.07;;;6.77;;
7833;SDS011;3962;42.696;23.354;2023-07-24T00:44:58;7.90;;;7.60;;
7833;SDS011;3962;42.696;23.354;2023-07-24T00:47:25;7.60;;;7.30;;
7833;SDS011;3962;42.696;23.354;2023-07-24T00:49:53;7.77;;;7.47;;
7833;SDS011;3962;42.696;23.354;2023-07-24T00:52:21;7.67;;;7.37;;
7833;SDS011;3962;42.696;23.354;2023-07-24T00:54:51;8.00;;;7.70;;
7833;SDS011;3962;42.696;23.354;2023-07-24T00:57:18;7.33;;;7.03;;
7833;SDS011;3962;42.696;23.354;2023-07-24T00:59:45;8.83;;;8.43;;
7833;SDS011;3962;42.696;23.354;2023-07-24T01:02:11;6.83;;;6.53;;
7833;SDS011;3962;42.696;23.354;2023-07-24T01:04:38;7.33;;;7.03;;
7833;SDS011;3962;42.696;23.354;2023-07-24T01:07:05;8.03;;;7.73;;
7833;SDS011;3962;42.696;23.354;2023-07-24T01:09:32;7.57;;;7.27;;
7833;SDS011;3962;42.696;23.354;2023-07-24T01:12:03;7.27;;;6.97;;
7833;SDS011;3962;42.696;23.354;2023-07-24T01:14:38;7.43;;;7.13;;
7833;SDS011;3962;42.696;23.354;2023-07-24T01:17:11;8.30;;;7.90;;
7833;SDS011;3962;42.696;23.354;2023-07-24T01:19:43;8.20;;;7.90;;
7833;SDS011;3962;42.696;23.354;2023-07-24T01:22:25;8.60;;;8.00;;
7833;SDS011;3962;42.696;23.354;2023-07-24T01:25:05;8.53;;;8.13;;
7833;SDS011;3962;42.696;23.354;2023-07-24T01:27:41;7.13;;;6.83;;
7833;SDS011;3962;42.696;23.354;2023-07-24T01:30:09;7.77;;;7.47;;
7833;SDS011;3962;42.696;23.354;2023-07-24T01:32:36;8.00;;;7.70;;
7833;SDS011;3962;42.696;23.354;2023-07-24T01:35:03;7.97;;;7.67;;
7833;SDS011;3962;42.696;23.354;2023-07-24T01:37:31;8.07;;;7.67;;
7833;SDS011;3962;42.696;23.354;2023-07-24T01:40:00;8.13;;;7.83;;
7833;SDS011;3962;42.696;23.354;2023-07-24T01:42:28;7.70;;;7.40;;
7833;SDS011;3962;42.696;23.354;2023-07-24T01:44:57;7.90;;;7.60;;
7833;SDS011;3962;42.696;23.354;2023-07-24T01:47:23;8.00;;;7.70;;
7833;SDS011;3962;42.696;23.354;2023-07-24T01:49:50;8.93;;;8.53;;
7833;SDS011;3962;42.696;23.354;2023-07-24T01:52:17;7.93;;;7.53;;
7833;SDS011;3962;42.696;23.354;2023-07-24T01:54:44;8.60;;;8.20;;
7833;SDS011;3962;42.696;23.354;2023-07-24T01:57:11;7.23;;;6.93;;
7833;SDS011;3962;42.696;23.354;2023-07-24T01:59:38;6.83;;;6.53;;
7833;SDS011;3962;42.696;23.354;2023-07-24T02:02:06;8.90;;;8.50;;
7833;SDS011;3962;42.696;23.354;2023-07-24T02:04:32;7.07;;;6.77;;
7833;SDS011;3962;42.696;23.354;2023-07-24T02:06:59;8.43;;;8.03;;
7833;SDS011;3962;42.696;23.354;2023-07-24T02:09:26;9.03;;;8.63;;
7833;SDS011;3962;42.696;23.354;2023-07-24T02:11:53;7.27;;;6.97;;
7833;SDS011;3962;42.696;23.354;2023-07-24T02:14:19;8.90;;;8.50;;
7833;SDS011;3962;42.696;23.354;2023-07-24T02:16:47;10.47;;;9.97;;
7833;SDS011;3962;42.696;23.354;2023-07-24T02:19:15;10.30;;;9.83;;
7833;SDS011;3962;42.696;23.354;2023-07-24T02:21:42;7.83;;;7.53;;
7833;SDS011;3962;42.696;23.354;2023-07-24T02:24:08;8.57;;;8.07;;
7833;SDS011;3962;42.696;23.354;2023-07-24T02:26:35;7.77;;;7.47;;
7833;SDS011;3962;42.696;23.354;2023-07-24T02:29:02;7.70;;;7.30;;
7833;SDS011;3962;42.696;23.354;2023-07-24T02:31:29;8.03;;;7.67;;
7833;SDS011;3962;42.696;23.354;2023-07-24T02:33:56;8.23;;;7.83;;
7833;SDS011;3962;42.696;23.354;2023-07-24T02:36:24;8.20;;;7.90;;
7833;SDS011;3962;42.696;23.354;2023-07-24T02:38:51;7.77;;;7.47;;
7833;SDS011;3962;42.696;23.354;2023-07-24T02:41:18;6.90;;;6.60;;
7833;SDS011;3962;42.696;23.354;2023-07-24T02:43:45;7.40;;;7.10;;
7833;SDS011;3962;42.696;23.354;2023-07-24T02:46:11;7.50;;;7.20;;
7833;SDS011;3962;42.696;23.354;2023-07-24T02:48:38;7.90;;;7.60;;
7833;SDS011;3962;42.696;23.354;2023-07-24T02:51:05;8.60;;;8.20;;
7833;SDS011;3962;42.696;23.354;2023-07-24T02:53:33;7.90;;;7.60;;
7833;SDS011;3962;42.696;23.354;2023-07-24T02:56:00;9.47;;;9.07;;
7833;SDS011;3962;42.696;23.354;2023-07-24T02:58:27;7.17;;;6.87;;
7833;SDS011;3962;42.696;23.354;2023-07-24T03:00:54;8.17;;;7.87;;
7833;SDS011;3962;42.696;23.354;2023-07-24T03:03:28;7.60;;;7.30;;
7833;SDS011;3962;42.696;23.354;2023-07-24T03:05:55;8.03;;;7.63;;
7833;SDS011;3962;42.696;23.354;2023-07-24T03:08:21;8.00;;;7.67;;
7833;SDS011;3962;42.696;23.354;2023-07-24T03:10:49;7.77;;;7.47;;
7833;SDS011;3962;42.696;23.354;2023-07-24T03:13:16;8.37;;;8.03;;
7833;SDS011;3962;42.696;23.354;2023-07-24T03:15:43;8.40;;;8.00;;
7833;SDS011;3962;42.696;23.354;2023-07-24T03:18:17;8.33;;;7.93;;
7833;SDS011;3962;42.696;23.354;2023-07-24T03:20:44;8.70;;;8.30;;
7833;SDS011;3962;42.696;23.354;2023-07-24T03:23:11;8.77;;;8.37;;
7833;SDS011;3962;42.696;23.354;2023-07-24T03:25:37;8.73;;;8.33;;
7833;SDS011;3962;42.696;23.354;2023-07-24T03:28:06;8.17;;;7.77;;
7833;SDS011;3962;42.696;23.354;2023-07-24T03:30:32;8.73;;;8.33;;
7833;SDS011;3962;42.696;23.354;2023-07-24T03:32:59;8.97;;;8.57;;
7833;SDS011;3962;42.696;23.354;2023-07-24T03:35:27;9.23;;;8.83;;
7833;SDS011;3962;42.696;23.354;2023-07-24T03:37:54;8.93;;;8.53;;
7833;SDS011;3962;42.696;23.354;2023-07-24T03:40:20;7.90;;;7.57;;
7833;SDS011;3962;42.696;23.354;2023-07-24T03:42:47;10.73;;;10.13;;
7833;SDS011;3962;42.696;23.354;2023-07-24T03:45:15;9.17;;;8.77;;
7833;SDS011;3962;42.696;23.354;2023-07-24T03:47:42;8.63;;;8.23;;
7833;SDS011;3962;42.696;23.354;2023-07-24T03:50:09;8.57;;;8.17;;
7833;SDS011;3962;42.696;23.354;2023-07-24T03:52:36;8.90;;;8.50;;
7833;SDS011;3962;42.696;23.354;2023-07-24T03:55:03;9.20;;;8.80;;
7833;SDS011;3962;42.696;23.354;2023-07-24T03:57:30;8.27;;;7.87;;
7833;SDS011;3962;42.696;23.354;2023-07-24T03:59:57;8.60;;;8.20;;
7833;SDS011;3962;42.696;23.354;2023-07-24T04:02:25;9.50;;;9.10;;
7833;SDS011;3962;42.696;23.354;2023-07-24T04:04:52;8.30;;;8.00;;
7833;SDS011;3962;42.696;23.354;2023-07-24T04:07:19;8.20;;;7.80;;
7833;SDS011;3962;42.696;23.354;2023-07-24T04:09:45;7.60;;;7.30;;
7833;SDS011;3962;42.696;23.354;2023-07-24T04:12:12;9.13;;;8.63;;
7833;SDS011;3962;42.696;23.354;2023-07-24T04:14:39;7.70;;;7.40;;
7833;SDS011;3962;42.696;23.354;2023-07-24T04:17:06;9.93;;;9.27;;
7833;SDS011;3962;42.696;23.354;2023-07-24T04:19:34;9.17;;;8.77;;
7833;SDS011;3962;42.696;23.354;2023-07-24T04:22:01;8.53;;;8.03;;
7833;SDS011;3962;42.696;23.354;2023-07-24T04:24:27;9.30;;;8.83;;
7833;SDS011;3962;42.696;23.354;2023-07-24T04:26:54;8.73;;;8.27;;
7833;SDS011;3962;42.696;23.354;2023-07-24T04:29:21;7.70;;;7.40;;
7833;SDS011;3962;42.696;23.354;2023-07-24T04:31:49;9.17;;;8.67;;
7833;SDS011;3962;42.696;23.354;2023-07-24T04:34:15;9.53;;;9.13;;
7833;SDS011;3962;42.696;23.354;2023-07-24T04:36:43;10.37;;;9.70;;
7833;SDS011;3962;42.696;23.354;2023-07-24T04:39:10;8.63;;;8.13;;
7833;SDS011;3962;42.696;23.354;2023-07-24T04:41:37;9.23;;;8.77;;
7833;SDS011;3962;42.696;23.354;2023-07-24T04:44:04;8.27;;;7.87;;
7833;SDS011;3962;42.696;23.354;2023-07-24T04:46:30;8.70;;;8.20;;
7833;SDS011;3962;42.696;23.354;2023-07-24T04:48:57;9.17;;;8.77;;
7833;SDS011;3962;42.696;23.354;2023-07-24T04:51:24;8.30;;;7.90;;
7833;SDS011;3962;42.696;23.354;2023-07-24T04:53:53;8.30;;;7.90;;
7833;SDS011;3962;42.696;23.354;2023-07-24T04:56:20;8.53;;;8.13;;
7833;SDS011;3962;42.696;23.354;2023-07-24T04:58:46;8.87;;;8.47;;
7833;SDS011;3962;42.696;23.354;2023-07-24T05:01:13;8.73;;;8.33;;
7833;SDS011;3962;42.696;23.354;2023-07-24T05:03:40;8.33;;;7.93;;
7833;SDS011;3962;42.696;23.354;2023-07-24T05:06:07;8.50;;;8.10;;
7833;SDS011;3962;42.696;23.354;2023-07-24T05:08:33;8.33;;;7.93;;
7833;SDS011;3962;42.696;23.354;2023-07-24T05:11:01;8.23;;;7.83;;
7833;SDS011;3962;42.696;23.354;2023-07-24T05:13:28;7.83;;;7.43;;
7833;SDS011;3962;42.696;23.354;2023-07-24T05:15:55;9.13;;;8.73;;
7833;SDS011;3962;42.696;23.354;2023-07-24T05:18:22;8.93;;;8.53;;
7833;SDS011;3962;42.696;23.354;2023-07-24T05:20:48;10.07;;;9.57;;
7833;SDS011;3962;42.696;23.354;2023-07-24T05:23:16;8.07;;;7.67;;
7833;SDS011;3962;42.696;23.354;2023-07-24T05:25:43;8.70;;;8.30;;
7833;SDS011;3962;42.696;23.354;2023-07-24T05:28:11;7.40;;;7.10;;
7833;SDS011;3962;42.696;23.354;2023-07-24T05:30:38;7.37;;;7.07;;
7833;SDS011;3962;42.696;23.354;2023-07-24T05:33:05;8.17;;;7.77;;
7833;SDS011;3962;42.696;23.354;2023-07-24T05:35:31;8.07;;;7.67;;
7833;SDS011;3962;42.696;23.354;2023-07-24T05:37:58;7.30;;;7.00;;
7833;SDS011;3962;42.696;23.354;2023-07-24T05:40:25;8.23;;;7.83;;
7833;SDS011;3962;42.696;23.354;2023-07-24T05:42:53;7.80;;;7.43;;
7833;SDS011;3962;42.696;23.354;2023-07-24T05:45:21;7.93;;;7.53;;
7833;SDS011;3962;42.696;23.354;2023-07-24T05:47:48;7.47;;;7.10;;
7833;SDS011;3962;42.696;23.354;2023-07-24T05:50:14;8.03;;;7.73;;
7833;SDS011;3962;42.696;23.354;2023-07-24T05:52:41;7.80;;;7.43;;
7833;SDS011;3962;42.696;23.354;2023-07-24T05:55:08;7.17;;;6.87;;
7833;SDS011;3962;42.696;23.354;2023-07-24T05:57:35;7.47;;;7.17;;
7833;SDS011;3962;42.696;23.354;2023-07-24T06:00:02;7.17;;;6.77;;
7833;SDS011;3962;42.696;23.354;2023-07-24T06:02:31;7.47;;;7.07;;
7833;SDS011;3962;42.696;23.354;2023-07-24T06:04:58;7.33;;;6.93;;
7833;SDS011;3962;42.696;23.354;2023-07-24T06:07:25;7.70;;;7.40;;
7833;SDS011;3962;42.696;23.354;2023-07-24T06:09:51;8.00;;;7.70;;
7833;SDS011;3962;42.696;23.354;2023-07-24T06:12:18;6.80;;;6.50;;
7833;SDS011;3962;42.696;23.354;2023-07-24T06:14:45;7.07;;;6.77;;
7833;SDS011;3962;42.696;23.354;2023-07-24T06:17:12;6.87;;;6.57;;
7833;SDS011;3962;42.696;23.354;2023-07-24T06:19:40;8.07;;;7.67;;
7833;SDS011;3962;42.696;23.354;2023-07-24T06:22:07;6.70;;;6.40;;
7833;SDS011;3962;42.696;23.354;2023-07-24T06:24:33;7.47;;;7.17;;
7833;SDS011;3962;42.696;23.354;2023-07-24T06:27:00;6.93;;;6.63;;
7833;SDS011;3962;42.696;23.354;2023-07-24T06:29:27;7.67;;;7.27;;
7833;SDS011;3962;42.696;23.354;2023-07-24T06:31:54;7.00;;;6.70;;
7833;SDS011;3962;42.696;23.354;2023-07-24T06:34:21;7.20;;;6.80;;
7833;SDS011;3962;42.696;23.354;2023-07-24T06:36:49;7.07;;;6.77;;
7833;SDS011;3962;42.696;23.354;2023-07-24T06:39:15;7.73;;;7.40;;
7833;SDS011;3962;42.696;23.354;2023-07-24T06:41:42;6.80;;;6.50;;
7833;SDS011;3962;42.696;23.354;2023-07-24T06:44:09;7.53;;;6.80;;
7833;SDS011;3962;42.696;23.354;2023-07-24T06:46:36;7.00;;;6.70;;
7833;SDS011;3962;42.696;23.354;2023-07-24T06:49:03;6.97;;;6.67;;
7833;SDS011;3962;42.696;23.354;2023-07-24T06:51:29;6.97;;;6.67;;
7833;SDS011;3962;42.696;23.354;2023-07-24T06:53:58;7.47;;;7.17;;
7833;SDS011;3962;42.696;23.354;2023-07-24T06:56:24;7.23;;;6.87;;
7833;SDS011;3962;42.696;23.354;2023-07-24T06:58:51;7.17;;;6.83;;
7833;SDS011;3962;42.696;23.354;2023-07-24T07:01:18;7.70;;;7.30;;
7833;SDS011;3962;42.696;23.354;2023-07-24T07:03:46;7.63;;;7.27;;
7833;SDS011;3962;42.696;23.354;2023-07-24T07:06:12;6.33;;;6.03;;
7833;SDS011;3962;42.696;23.354;2023-07-24T07:08:39;7.37;;;7.00;;
7833;SDS011;3962;42.696;23.354;2023-07-24T07:11:08;6.80;;;6.50;;
7833;SDS011;3962;42.696;23.354;2023-07-24T07:13:35;6.80;;;6.50;;
7833;SDS011;3962;42.696;23.354;2023-07-24T07:16:05;6.43;;;6.13;;
7833;SDS011;3962;42.696;23.354;2023-07-24T07:18:32;6.60;;;6.20;;
7833;SDS011;3962;42.696;23.354;2023-07-24T07:20:58;6.60;;;6.30;;
7833;SDS011;3962;42.696;23.354;2023-07-24T07:23:26;7.00;;;6.60;;
7833;SDS011;3962;42.696;23.354;2023-07-24T07:25:53;6.27;;;5.97;;
7833;SDS011;3962;42.696;23.354;2023-07-24T07:28:21;6.20;;;5.90;;
7833;SDS011;3962;42.696;23.354;2023-07-24T07:30:48;5.50;;;5.20;;
7833;SDS011;3962;42.696;23.354;2023-07-24T07:33:17;6.03;;;5.70;;
7833;SDS011;3962;42.696;23.354;2023-07-24T07:35:46;5.97;;;5.67;;
7833;SDS011;3962;42.696;23.354;2023-07-24T07:38:13;5.53;;;5.33;;
7833;SDS011;3962;42.696;23.354;2023-07-24T07:40:40;6.43;;;6.13;;
7833;SDS011;3962;42.696;23.354;2023-07-24T07:43:07;5.80;;;5.50;;
7833;SDS011;3962;42.696;23.354;2023-07-24T07:45:35;5.20;;;5.00;;
7833;SDS011;3962;42.696;23.354;2023-07-24T07:48:02;6.17;;;5.87;;
7833;SDS011;3962;42.696;23.354;2023-07-24T07:50:30;5.10;;;4.90;;
7833;SDS011;3962;42.696;23.354;2023-07-24T07:52:57;5.63;;;5.43;;
7833;SDS011;3962;42.696;23.354;2023-07-24T07:55:24;5.53;;;5.30;;
7833;SDS011;3962;42.696;23.354;2023-07-24T07:57:51;5.27;;;5.07;;
7833;SDS011;3962;42.696;23.354;2023-07-24T08:00:19;5.13;;;4.93;;
7833;SDS011;3962;42.696;23.354;2023-07-24T08:02:47;4.70;;;4.40;;
7833;SDS011;3962;42.696;23.354;2023-07-24T08:05:14;5.50;;;5.10;;
7833;SDS011;3962;42.696;23.354;2023-07-24T08:07:41;5.30;;;5.10;;
7833;SDS011;3962;42.696;23.354;2023-07-24T08:10:08;5.33;;;5.03;;
7833;SDS011;3962;42.696;23.354;2023-07-24T08:12:35;5.33;;;5.03;;
7833;SDS011;3962;42.696;23.354;2023-07-24T08:15:02;5.63;;;5.30;;
7833;SDS011;3962;42.696;23.354;2023-07-24T08:17:30;5.70;;;5.40;;
7833;SDS011;3962;42.696;23.354;2023-07-24T08:19:58;5.47;;;5.20;;
7833;SDS011;3962;42.696;23.354;2023-07-24T08:22:27;5.13;;;4.83;;
7833;SDS011;3962;42.696;23.354;2023-07-24T08:24:54;5.03;;;4.83;;
7833;SDS011;3962;42.696;23.354;2023-07-24T08:27:21;6.33;;;6.03;;
7833;SDS011;3962;42.696;23.354;2023-07-24T08:29:50;5.40;;;5.10;;
7833;SDS011;3962;42.696;23.354;2023-07-24T08:32:17;5.50;;;5.20;;
7833;SDS011;3962;42.696;23.354;2023-07-24T08:34:44;4.90;;;4.60;;
7833;SDS011;3962;42.696;23.354;2023-07-24T08:37:12;5.47;;;5.23;;
7833;SDS011;3962;42.696;23.354;2023-07-24T08:39:39;4.80;;;4.60;;
7833;SDS011;3962;42.696;23.354;2023-07-24T08:42:10;5.70;;;5.50;;
7833;SDS011;3962;42.696;23.354;2023-07-24T08:44:38;4.90;;;4.70;;
7833;SDS011;3962;42.696;23.354;2023-07-24T08:47:06;5.53;;;5.17;;
7833;SDS011;3962;42.696;23.354;2023-07-24T08:49:36;5.10;;;4.80;;
7833;SDS011;3962;42.696;23.354;2023-07-24T08:52:05;5.27;;;5.03;;
7833;SDS011;3962;42.696;23.354;2023-07-24T08:54:35;5.37;;;5.07;;
7833;SDS011;3962;42.696;23.354;2023-07-24T08:57:04;5.23;;;4.93;;
7833;SDS011;3962;42.696;23.354;2023-07-24T08:59:32;5.10;;;4.80;;
7833;SDS011;3962;42.696;23.354;2023-07-24T09:01:59;5.73;;;5.43;;
7833;SDS011;3962;42.696;23.354;2023-07-24T09:04:26;5.53;;;5.13;;
7833;SDS011;3962;42.696;23.354;2023-07-24T09:06:53;5.13;;;4.93;;
7833;SDS011;3962;42.696;23.354;2023-07-24T09:09:23;5.43;;;5.13;;
7833;SDS011;3962;42.696;23.354;2023-07-24T09:11:56;5.80;;;5.50;;
7833;SDS011;3962;42.696;23.354;2023-07-24T09:14:23;5.70;;;5.40;;
7833;SDS011;3962;42.696;23.354;2023-07-24T09:17:01;5.60;;;5.37;;
7833;SDS011;3962;42.696;23.354;2023-07-24T09:19:28;6.43;;;6.07;;
7833;SDS011;3962;42.696;23.354;2023-07-24T09:21:55;4.93;;;4.70;;
7833;SDS011;3962;42.696;23.354;2023-07-24T09:24:22;5.03;;;4.83;;
7833;SDS011;3962;42.696;23.354;2023-07-24T09:26:49;4.50;;;4.30;;
7833;SDS011;3962;42.696;23.354;2023-07-24T09:29:19;4.87;;;4.67;;
7833;SDS011;3962;42.696;23.354;2023-07-24T09:31:47;5.47;;;5.27;;
7833;SDS011;3962;42.696;23.354;2023-07-24T09:34:18;5.03;;;4.73;;
7833;SDS011;3962;42.696;23.354;2023-07-24T09:36:46;4.93;;;4.73;;
7833;SDS011;3962;42.696;23.354;2023-07-24T09:39:14;5.57;;;5.27;;
7833;SDS011;3962;42.696;23.354;2023-07-24T09:41:41;5.73;;;5.43;;
7833;SDS011;3962;42.696;23.354;2023-07-24T09:44:07;5.53;;;5.23;;
7833;SDS011;3962;42.696;23.354;2023-07-24T09:46:39;5.00;;;4.70;;
7833;SDS011;3962;42.696;23.354;2023-07-24T09:49:07;5.80;;;5.50;;
7833;SDS011;3962;42.696;23.354;2023-07-24T09:51:34;5.70;;;5.40;;
7833;SDS011;3962;42.696;23.354;2023-07-24T09:54:04;4.87;;;4.67;;
7833;SDS011;3962;42.696;23.354;2023-07-24T09:56:36;4.93;;;4.73;;
7833;SDS011;3962;42.696;23.354;2023-07-24T09:59:04;6.53;;;5.90;;
7833;SDS011;3962;42.696;23.354;2023-07-24T10:01:32;4.90;;;4.70;;
7833;SDS011;3962;42.696;23.354;2023-07-24T10:04:04;5.60;;;5.30;;
7833;SDS011;3962;42.696;23.354;2023-07-24T10:06:33;4.97;;;4.70;;
7833;SDS011;3962;42.696;23.354;2023-07-24T10:09:00;7.43;;;6.83;;
7833;SDS011;3962;42.696;23.354;2023-07-24T10:11:27;5.72;;;5.32;;
7833;SDS011;3962;42.696;23.354;2023-07-24T10:13:55;5.10;;;4.80;;
7833;SDS011;3962;42.696;23.354;2023-07-24T10:16:23;4.97;;;4.68;;
7833;SDS011;3962;42.696;23.354;2023-07-24T10:18:50;5.75;;;5.25;;
7833;SDS011;3962;42.696;23.354;2023-07-24T10:21:19;5.03;;;4.72;;
7833;SDS011;3962;42.696;23.354;2023-07-24T10:23:53;5.55;;;5.25;;
7833;SDS011;3962;42.696;23.354;2023-07-24T10:26:24;5.20;;;4.90;;
7833;SDS011;3962;42.696;23.354;2023-07-24T10:28:52;5.78;;;5.38;;
7833;SDS011;3962;42.696;23.354;2023-07-24T10:31:20;5.55;;;5.10;;
7833;SDS011;3962;42.696;23.354;2023-07-24T10:33:48;7.82;;;6.50;;
7833;SDS011;3962;42.696;23.354;2023-07-24T10:36:16;5.53;;;5.18;;
7833;SDS011;3962;42.696;23.354;2023-07-24T10:38:51;4.82;;;4.60;;
7833;SDS011;3962;42.696;23.354;2023-07-24T10:41:19;5.55;;;5.25;;
7833;SDS011;3962;42.696;23.354;2023-07-24T10:43:46;5.13;;;4.82;;
7833;SDS011;3962;42.696;23.354;2023-07-24T10:46:15;5.75;;;5.25;;
7833;SDS011;3962;42.696;23.354;2023-07-24T10:48:44;4.78;;;4.47;;
7833;SDS011;3962;42.696;23.354;2023-07-24T10:51:12;4.95;;;4.65;;
7833;SDS011;3962;42.696;23.354;2023-07-24T10:53:43;4.93;;;4.53;;
7833;SDS011;3962;42.696;23.354;2023-07-24T10:56:11;5.60;;;5.20;;
7833;SDS011;3962;42.696;23.354;2023-07-24T10:58:38;5.30;;;5.00;;
7833;SDS011;3962;42.696;23.354;2023-07-24T11:01:05;4.80;;;4.60;;
7833;SDS011;3962;42.696;23.354;2023-07-24T11:03:34;5.40;;;5.10;;
7833;SDS011;3962;42.696;23.354;2023-07-24T11:06:02;5.63;;;5.33;;
7833;SDS011;3962;42.696;23.354;2023-07-24T11:08:30;5.73;;;5.43;;
7833;SDS011;3962;42.696;23.354;2023-07-24T11:10:59;5.13;;;4.83;;
7833;SDS011;3962;42.696;23.354;2023-07-24T11:13:28;4.93;;;4.63;;
7833;SDS011;3962;42.696;23.354;2023-07-24T11:15:55;5.50;;;5.20;;
7833;SDS011;3962;42.696;23.354;2023-07-24T11:18:22;5.70;;;5.30;;
7833;SDS011;3962;42.696;23.354;2023-07-24T11:20:52;5.13;;;4.82;;
7833;SDS011;3962;42.696;23.354;2023-07-24T11:23:20;5.90;;;5.60;;
7833;SDS011;3962;42.696;23.354;2023-07-24T11:25:49;5.97;;;5.57;;
7833;SDS011;3962;42.696;23.354;2023-07-24T11:28:18;5.97;;;5.47;;
7833;SDS011;3962;42.696;23.354;2023-07-24T11:30:45;5.50;;;5.20;;
7833;SDS011;3962;42.696;23.354;2023-07-24T11:33:13;5.33;;;5.03;;
7833;SDS011;3962;42.696;23.354;2023-07-24T11:35:42;4.88;;;4.65;;
7833;SDS011;3962;42.696;23.354;2023-07-24T11:38:09;5.23;;;5.03;;
7833;SDS011;3962;42.696;23.354;2023-07-24T11:40:36;4.60;;;4.40;;
7833;SDS011;3962;42.696;23.354;2023-07-24T11:43:04;5.13;;;4.82;;
7833;SDS011;3962;42.696;23.354;2023-07-24T11:45:39;5.35;;;5.05;;
7833;SDS011;3962;42.696;23.354;2023-07-24T11:48:09;5.13;;;4.72;;
7833;SDS011;3962;42.696;23.354;2023-07-24T11:50:41;4.97;;;4.78;;
7833;SDS011;3962;42.696;23.354;2023-07-24T11:53:18;6.53;;;5.93;;
7833;SDS011;3962;42.696;23.354;2023-07-24T11:55:47;4.78;;;4.50;;
7833;SDS011;3962;42.696;23.354;2023-07-24T11:58:14;4.63;;;4.32;;
7833;SDS011;3962;42.696;23.354;2023-07-24T12:00:43;4.65;;;4.43;;
7833;SDS011;3962;42.696;23.354;2023-07-24T12:03:11;4.43;;;4.22;;
7833;SDS011;3962;42.696;23.354;2023-07-24T12:05:38;4.68;;;4.47;;
7833;SDS011;3962;42.696;23.354;2023-07-24T12:08:06;5.20;;;4.90;;
7833;SDS011;3962;42.696;23.354;2023-07-24T12:10:35;4.60;;;4.40;;
7833;SDS011;3962;42.696;23.354;2023-07-24T12:13:03;4.30;;;4.10;;
7833;SDS011;3962;42.696;23.354;2023-07-24T12:15:30;5.13;;;4.78;;
7833;SDS011;3962;42.696;23.354;2023-07-24T12:17:59;4.90;;;4.63;;
7833;SDS011;3962;42.696;23.354;2023-07-24T12:20:26;4.97;;;4.57;;
7833;SDS011;3962;42.696;23.354;2023-07-24T12:22:54;4.88;;;4.63;;
7833;SDS011;3962;42.696;23.354;2023-07-24T12:25:20;4.50;;;4.30;;
7833;SDS011;3962;42.696;23.354;2023-07-24T12:27:48;4.43;;;4.22;;
7833;SDS011;3962;42.696;23.354;2023-07-24T12:30:15;4.97;;;4.57;;
7833;SDS011;3962;42.696;23.354;2023-07-24T12:32:42;4.40;;;4.20;;
7833;SDS011;3962;42.696;23.354;2023-07-24T12:35:10;4.60;;;4.40;;
7833;SDS011;3962;42.696;23.354;2023-07-24T12:37:37;4.70;;;4.43;;
7833;SDS011;3962;42.696;23.354;2023-07-24T12:40:06;4.53;;;4.32;;
7833;SDS011;3962;42.696;23.354;2023-07-24T12:42:33;4.60;;;4.40;;
7833;SDS011;3962;42.696;23.354;2023-07-24T12:45:00;4.63;;;4.43;;
7833;SDS011;3962;42.696;23.354;2023-07-24T12:47:29;4.70;;;4.50;;
7833;SDS011;3962;42.696;23.354;2023-07-24T12:49:56;5.18;;;4.88;;
7833;SDS011;3962;42.696;23.354;2023-07-24T12:52:25;4.40;;;4.20;;
7833;SDS011;3962;42.696;23.354;2023-07-24T12:54:52;4.80;;;4.60;;
7833;SDS011;3962;42.696;23.354;2023-07-24T12:57:19;4.95;;;4.65;;
7833;SDS011;3962;42.696;23.354;2023-07-24T12:59:46;4.82;;;4.63;;
7833;SDS011;3962;42.696;23.354;2023-07-24T13:02:13;5.32;;;5.03;;
7833;SDS011;3962;42.696;23.354;2023-07-24T13:04:40;4.25;;;3.92;;
7833;SDS011;3962;42.696;23.354;2023-07-24T13:07:06;4.60;;;4.30;;
7833;SDS011;3962;42.696;23.354;2023-07-24T13:09:35;4.55;;;4.25;;
7833;SDS011;3962;42.696;23.354;2023-07-24T13:12:02;4.85;;;4.65;;
7833;SDS011;3962;42.696;23.354;2023-07-24T13:14:29;4.53;;;4.32;;
7833;SDS011;3962;42.696;23.354;2023-07-24T13:16:56;4.53;;;4.32;;
7833;SDS011;3962;42.696;23.354;2023-07-24T13:19:23;4.57;;;4.38;;
7833;SDS011;3962;42.696;23.354;2023-07-24T13:21:50;4.90;;;4.70;;
7833;SDS011;3962;42.696;23.354;2023-07-24T13:24:17;5.07;;;4.78;;
7833;SDS011;3962;42.696;23.354;2023-07-24T13:26:45;5.60;;;5.15;;
7833;SDS011;3962;42.696;23.354;2023-07-24T13:29:12;4.32;;;4.10;;
7833;SDS011;3962;42.696;23.354;2023-07-24T13:31:39;4.40;;;4.10;;
7833;SDS011;3962;42.696;23.354;2023-07-24T13:34:06;4.93;;;4.65;;
7833;SDS011;3962;42.696;23.354;2023-07-24T13:36:33;4.30;;;4.10;;
7833;SDS011;3962;42.696;23.354;2023-07-24T13:39:02;4.47;;;4.28;;
7833;SDS011;3962;42.696;23.354;2023-07-24T13:41:29;4.43;;;4.13;;
7833;SDS011;3962;42.696;23.354;2023-07-24T13:43:58;5.07;;;4.78;;
7833;SDS011;3962;42.696;23.354;2023-07-24T13:46:25;4.30;;;4.10;;
7833;SDS011;3962;42.696;23.354;2023-07-24T13:48:51;5.25;;;4.90;;
7833;SDS011;3962;42.696;23.354;2023-07-24T13:51:19;4.95;;;4.65;;
7833;SDS011;3962;42.696;23.354;2023-07-24T13:53:46;4.88;;;4.53;;
7833;SDS011;3962;42.696;23.354;2023-07-24T13:56:14;4.13;;;3.92;;
7833;SDS011;3962;42.696;23.354;2023-07-24T13:58:41;4.68;;;4.47;;
7833;SDS011;3962;42.696;23.354;2023-07-24T14:01:10;4.88;;;4.60;;
7833;SDS011;3962;42.696;23.354;2023-07-24T14:03:36;4.55;;;4.25;;
7833;SDS011;3962;42.696;23.354;2023-07-24T14:06:03;4.88;;;4.57;;
7833;SDS011;3962;42.696;23.354;2023-07-24T14:08:30;4.88;;;4.57;;
7833;SDS011;3962;42.696;23.354;2023-07-24T14:10:57;4.32;;;4.13;;
7833;SDS011;3962;42.696;23.354;2023-07-24T14:13:24;5.20;;;5.00;;
7833;SDS011;3962;42.696;23.354;2023-07-24T14:15:50;4.40;;;4.20;;
7833;SDS011;3962;42.696;23.354;2023-07-24T14:18:19;4.40;;;4.00;;
7833;SDS011;3962;42.696;23.354;2023-07-24T14:20:46;4.70;;;4.40;;
7833;SDS011;3962;42.696;23.354;2023-07-24T14:23:13;4.70;;;4.50;;
7833;SDS011;3962;42.696;23.354;2023-07-24T14:25:40;4.32;;;4.07;;
7833;SDS011;3962;42.696;23.354;2023-07-24T14:28:07;4.60;;;4.30;;
7833;SDS011;3962;42.696;23.354;2023-07-24T14:30:34;4.20;;;4.00;;
7833;SDS011;3962;42.696;23.354;2023-07-24T14:33:01;4.07;;;3.88;;
7833;SDS011;3962;42.696;23.354;2023-07-24T14:35:29;4.80;;;4.50;;
7833;SDS011;3962;42.696;23.354;2023-07-24T14:37:56;4.28;;;4.07;;
7833;SDS011;3962;42.696;23.354;2023-07-24T14:40:23;4.60;;;4.03;;
7833;SDS011;3962;42.696;23.354;2023-07-24T14:42:50;4.50;;;4.22;;
7833;SDS011;3962;42.696;23.354;2023-07-24T14:45:16;4.93;;;4.65;;
7833;SDS011;3962;42.696;23.354;2023-07-24T14:47:44;5.55;;;5.25;;
7833;SDS011;3962;42.696;23.354;2023-07-24T14:50:10;4.88;;;4.68;;
7833;SDS011;3962;42.696;23.354;2023-07-24T14:52:38;4.53;;;4.32;;
7833;SDS011;3962;42.696;23.354;2023-07-24T14:55:06;4.50;;;4.30;;
7833;SDS011;3962;42.696;23.354;2023-07-24T14:57:35;4.90;;;4.60;;
7833;SDS011;3962;42.696;23.354;2023-07-24T15:00:02;4.15;;;3.95;;
7833;SDS011;3962;42.696;23.354;2023-07-24T15:02:29;4.38;;;4.18;;